Saturday, May 07, 2016
00:26 UTC
  |  Log In   |  Register Free
Airport Search:

Foothills Regional Airport
(KMRN)

Foothills Regional Airport Diagram
No Airport Diagram Available

FAA data valid effective Mar 31 2016 - May 26 2016 (unless otherwise noted).

 
 
 
 
 
 
 
 
 
 
 
 
 
 
Current Aviation Weather for KMRN

Weather Summary


The most recent METAR observation for MRN was updated at: 12:55 UTC
METAR for KMRN is not available. Closest METAR is for KHKY
KMRN  (most recent observation was updatred at 70:01 UTC)
070010Z AUTO 28004KT 10SM BKN070 BKN080 OVC095 16/05 A2989 RMK AO2 T01600054

KHKY  (11.8 nm NW)   (most recent observation was updated at 62:35 UTC)
062353Z 36004KT 10SM BKN100 16/05 A2985 RMK AO2 SLP093 T01560050 10189 20156 53012

KFQD  (28.3 nm NE)   (most recent observation was updated at 70:01 UTC)
070010Z AUTO 00000KT 10SM SCT080 SCT100 17/04 A2987 RMK AO2 T01710037

TAF for KMRN is not available.
KHKY  (11.8 nm NW)   (most recent observation was updatred at 62:32 UTC)
062329Z 0700/0724 32010G17KT P6SM FEW080 FM070200 32006KT P6SM SCT200 FM071700 27010KT P6SM SCT200


GlobalAir.com is loading additional information.
 Current Weather at MRN
64.0 F° (18.0 C°)

Northwest winds at 5.8 mph
Pressure:
29.88 in
Humidity:
43%
Wind:
Northwest at 5.8 mph
Dew Point:
41.2 F° (5.1 C°)
Visibility:
10.00 mi
MRN NOAA Radar




Find All Airport Services Find A Hotel Find A Rental Car Find A Golf Course Find A Restaurant $100 Hamburger



Airport Weather Forecast for KMRN

Translated METAR for KMRN (0010 UTC)
METAR:
KMRN 070010Z AUTO 28004KT 10SM BKN070 BKN080 OVC095 16/05 A2989 RMK AO2 T01600054
Conditions at:
KMRN (Foothills Regional, NC) observed 0010 UTC 06 May 2016
Temperature:
16°C (60.8°F)
Dewpoint:
5°C (41°F) [RH = 48]
Pressure:
29.89 inches Hg (1012.2 mb)
Winds:
from the W (280 degrees) at 4.6 mph (4 knots: 2.1 m/s)
Visibility:
10 mile(s)
Ceiling:
7,000 feet AGL
Clouds:
Broken Cloud Cover at 7,000 feet AGL
Broken Cloud Cover at 8,000 feet AGL
Overcast Skies at 9,500 feet AGL
Remarks:
site is un-manned
site is automated and HAS a precipitation sensor

Translated TAF for KHKY (Hickory Rgnl, NC) (2329 UTC)
TAF text:
KHKY 062329Z 0700/0724 32010G17KT P6SM FEW080
Forecast period:
Saturday May 07 2016 00:00 UTC - Saturday May 07 2016 24:00 UTC
Forecast type:
FROM: standard forecast or significant change
Winds:
from the NW (320 degrees) at 11.5 mph (10 knots: 5.1 m/s)
gusting to 19.6 mph (17 knots: 8.7 m/s)
Visibility:
6 or more mile(s) (9.7+ km)
Ceiling:
at least 12,000 feet AGL
Clouds:
Few Clouds at 8,000 feet AGL
Weather:
no significant weather observed at this time
TAF text:
FM070200 32006KT P6SM SCT200
Forecast period:
Saturday May 07 2016 02:00 UTC - Saturday May 07 2016 17:00 UTC
Forecast type:
FROM: standard forecast or significant change
Winds:
from the NW (320 degrees) at 6.9 mph (6 knots: 3.1 m/s)
Visibility:
6 or more mile(s) (9.7+ km)
Ceiling:
at least 12,000 feet AGL
Clouds:
Scattered Clouds at 20,000 feet AGL
Weather:
no significant weather observed at this time
TAF text:
FM071700 27010KT P6SM SCT200
Forecast period:
Saturday May 07 2016 17:00 UTC - Saturday May 07 2016 24:00 UTC
Forecast type:
FROM: standard forecast or significant change
Winds:
from the W (270 degrees) at 11.5 mph (10 knots: 5.1 m/s)
Visibility:
6 or more mile(s) (9.7+ km)
Ceiling:
at least 12,000 feet AGL
Clouds:
Scattered Clouds at 20,000 feet AGL
Weather:
no significant weather observed at this time
FBO's on the Field
FBO Company Facility Photos Services Transportation Aviation Fuel Prices: Prices include tax
Catering Weather Repair Courtesy Rental Type 100LL JetA JetA+ MOGAS 8087
 
Foothills Aviation

This FBO has not yet been rated
FS:Shell
Last Updated: Apr-25
Login to update fuel prices
SS:
Contact Foothills AviationMore FBO Information
 
Add another FBO Facility Photos Catering Weather Repair Courtesy Rental Type 100LL JetA JetA+ MOGAS 8087
Services Transportation Aviation Fuel Prices: Prices include tax


model-print
model-print
model-print
model-print